TAF KPNA
KPNA 270520Z 2706/2806 29007KT P6SM SKC=
METAR KPNA
WC KPNA
WS KPNA
WV KPNA